Time;durP1;ratioP1;P1;durP2;ratioP2;P2;SDS_P1;SDS_P2;PMS_P1;PMS_P2;Temp;Humidity;BMP_temperature;BMP_pressure;BME280_temperature;BME280_humidity;BME280_pressure;Samples;Min_cycle;Max_cycle;Signal;HPM_P1;HPM_P2
2023/07/07 00:00:35;;;;;;;6.80;2.27;;;17.50;99.90;;;;;;4992265;28;20207;-85
2023/07/07 00:03:01;;;;;;;5.30;2.40;;;17.50;99.90;;;;;;4992013;28;20176;-84
2023/07/07 00:05:26;;;;;;;6.33;2.30;;;17.40;99.90;;;;;;4981873;28;20195;-84
2023/07/07 00:07:52;;;;;;;3.90;3.00;;;17.40;99.90;;;;;;5007732;28;20181;-85
2023/07/07 00:10:18;;;;;;;6.97;2.50;;;17.40;99.90;;;;;;4993058;28;20595;-84
2023/07/07 00:12:45;;;;;;;4.30;2.80;;;17.40;99.90;;;;;;4995128;28;20204;-85
2023/07/07 00:15:11;;;;;;;5.67;2.40;;;17.50;99.90;;;;;;4994052;28;20503;-85
2023/07/07 00:17:36;;;;;;;4.13;2.40;;;17.50;99.90;;;;;;4995613;28;20451;-85
2023/07/07 00:20:07;;;;;;;6.10;2.40;;;17.50;99.90;;;;;;5002095;28;20441;-82
2023/07/07 00:22:34;;;;;;;4.87;2.80;;;17.50;99.90;;;;;;4989396;28;20370;-85
2023/07/07 00:25:04;;;;;;;4.27;2.50;;;17.40;99.90;;;;;;4978475;28;20451;-83
2023/07/07 00:27:29;;;;;;;5.70;2.40;;;17.40;99.90;;;;;;4980606;28;20876;-84
2023/07/07 00:29:55;;;;;;;5.23;2.47;;;17.40;99.90;;;;;;4990083;28;20451;-84
2023/07/07 00:32:20;;;;;;;7.10;2.50;;;17.30;99.90;;;;;;4993099;28;20211;-84
2023/07/07 00:34:46;;;;;;;3.60;2.47;;;17.30;99.90;;;;;;4995835;28;20220;-85
2023/07/07 00:37:11;;;;;;;4.33;2.90;;;17.30;99.90;;;;;;4990983;28;20311;-83
2023/07/07 00:39:37;;;;;;;5.10;2.57;;;17.30;99.90;;;;;;4993523;28;20692;-84
2023/07/07 00:42:03;;;;;;;3.37;2.23;;;17.20;99.90;;;;;;4990740;28;20204;-84
2023/07/07 00:44:50;;;;;;;6.43;2.57;;;17.20;99.90;;;;;;4993829;28;20219;-84
2023/07/07 00:47:17;;;;;;;6.43;3.00;;;17.20;99.90;;;;;;4980825;28;20496;-84
2023/07/07 00:49:43;;;;;;;11.53;2.97;;;17.20;99.90;;;;;;4991417;28;20515;-83
2023/07/07 00:52:08;;;;;;;7.53;2.40;;;17.10;99.90;;;;;;4998451;28;20555;-85
2023/07/07 00:54:35;;;;;;;5.27;3.37;;;17.10;99.90;;;;;;4995628;28;20213;-84
2023/07/07 00:57:03;;;;;;;6.27;3.20;;;17.10;99.90;;;;;;4991100;28;20181;-84
2023/07/07 00:59:37;;;;;;;4.07;2.97;;;17.10;99.90;;;;;;4990142;28;21017;-83
2023/07/07 01:02:09;;;;;;;5.73;2.63;;;17.00;99.90;;;;;;5005153;28;20465;-83
2023/07/07 01:04:35;;;;;;;4.23;2.70;;;17.00;99.90;;;;;;4990805;28;20435;-85
2023/07/07 01:07:08;;;;;;;8.90;3.03;;;17.00;99.90;;;;;;4993621;28;20435;-84
2023/07/07 01:09:33;;;;;;;4.97;2.80;;;17.00;99.90;;;;;;4994097;28;20443;-85
2023/07/07 01:11:59;;;;;;;6.30;3.13;;;16.90;99.90;;;;;;4992783;28;20467;-84
2023/07/07 01:14:29;;;;;;;5.27;3.07;;;16.90;99.90;;;;;;4996350;28;20187;-85
2023/07/07 01:17:46;;;;;;;5.13;3.37;;;16.90;99.90;;;;;;4986654;28;20185;-84
2023/07/07 01:20:21;;;;;;;3.40;2.57;;;16.70;99.90;;;;;;4979471;28;20453;-84
2023/07/07 01:23:16;;;;;;;3.93;2.47;;;16.60;99.90;;;;;;4990880;28;20438;-84
2023/07/07 01:26:14;;;;;;;9.97;2.97;;;16.50;99.90;;;;;;4996850;28;20530;-84
2023/07/07 01:28:43;;;;;;;5.23;2.93;;;16.40;99.90;;;;;;5002120;28;20443;-84
2023/07/07 01:31:22;;;;;;;4.53;2.60;;;16.30;99.90;;;;;;5005425;28;20478;-85
2023/07/07 01:33:48;;;;;;;3.93;2.70;;;16.30;99.90;;;;;;4992152;28;20478;-84
2023/07/07 01:36:14;;;;;;;4.80;2.47;;;16.20;99.90;;;;;;4994964;28;20481;-83
2023/07/07 01:38:45;;;;;;;6.47;2.87;;;16.20;99.90;;;;;;4990240;28;20804;-84
2023/07/07 01:41:32;;;;;;;6.60;2.70;;;16.20;99.90;;;;;;4990585;28;20203;-85
2023/07/07 01:44:08;;;;;;;7.40;3.00;;;16.30;99.90;;;;;;4995652;28;20476;-84
2023/07/07 01:46:46;;;;;;;7.37;3.30;;;16.20;99.90;;;;;;4996483;28;20496;-84
2023/07/07 01:49:19;;;;;;;5.77;3.30;;;16.20;99.90;;;;;;5003213;28;20446;-84
2023/07/07 01:51:59;;;;;;;6.33;2.47;;;16.20;99.90;;;;;;4995569;28;20465;-84
2023/07/07 01:54:28;;;;;;;6.17;2.90;;;16.20;99.90;;;;;;4994738;28;20449;-85
2023/07/07 01:56:55;;;;;;;5.87;3.13;;;16.10;99.90;;;;;;4994718;28;20511;-85
2023/07/07 01:59:22;;;;;;;3.80;3.00;;;16.10;99.90;;;;;;4998315;28;20473;-84
2023/07/07 02:01:48;;;;;;;6.13;3.00;;;16.00;99.90;;;;;;4995211;28;20482;-85
2023/07/07 02:04:14;;;;;;;3.97;2.93;;;15.90;99.90;;;;;;4997108;28;20926;-84
2023/07/07 02:06:39;;;;;;;7.00;2.90;;;15.90;1.00;;;;;;4993370;28;20687;-84
2023/07/07 02:09:06;;;;;;;5.33;3.63;;;15.80;1.00;;;;;;4992645;28;20261;-84
2023/07/07 02:11:31;;;;;;;9.50;3.07;;;15.80;1.00;;;;;;4990902;28;20429;-84
2023/07/07 02:13:57;;;;;;;7.57;3.07;;;15.80;1.00;;;;;;4987932;28;20893;-84
2023/07/07 02:16:22;;;;;;;5.23;3.80;;;15.70;1.00;;;;;;4990528;28;20868;-84
2023/07/07 02:18:48;;;;;;;4.57;3.10;;;15.70;1.00;;;;;;4995614;28;20182;-84
2023/07/07 02:21:20;;;;;;;7.10;3.63;;;15.70;1.00;;;;;;4994552;28;20215;-83
2023/07/07 02:23:45;;;;;;;8.23;3.50;;;15.70;1.00;;;;;;4997614;28;20212;-84
2023/07/07 02:26:13;;;;;;;6.67;3.33;;;15.70;1.00;;;;;;4989971;28;20449;-84
2023/07/07 02:28:38;;;;;;;5.70;2.80;;;15.70;1.00;;;;;;4990822;28;20252;-84
2023/07/07 02:31:06;;;;;;;20.03;4.17;;;15.80;1.00;;;;;;4991050;28;20449;-83
2023/07/07 02:33:31;;;;;;;4.13;3.03;;;15.80;1.00;;;;;;5006451;28;20191;-84
2023/07/07 02:36:03;;;;;;;4.97;2.67;;;15.80;1.00;;;;;;4982290;28;21066;-83
2023/07/07 02:38:29;;;;;;;10.50;3.37;;;15.80;1.00;;;;;;4989102;28;20240;-84
2023/07/07 02:40:55;;;;;;;4.97;3.00;;;15.80;1.00;;;;;;4997753;28;20571;-84
2023/07/07 02:43:21;;;;;;;9.30;3.50;;;15.80;1.00;;;;;;4988179;28;20438;-84
2023/07/07 02:45:46;;;;;;;9.57;3.40;;;15.80;1.00;;;;;;4988756;28;20443;-84
2023/07/07 02:48:13;;;;;;;3.93;3.07;;;15.80;1.00;;;;;;4989113;28;20203;-84
2023/07/07 02:50:38;;;;;;;13.53;2.83;;;15.80;1.00;;;;;;4991539;28;20218;-83
2023/07/07 02:53:04;;;;;;;7.80;3.70;;;15.80;1.00;;;;;;4999316;28;20978;-83
2023/07/07 02:55:29;;;;;;;5.93;3.17;;;15.80;1.00;;;;;;5004500;28;20229;-85
2023/07/07 02:57:55;;;;;;;5.57;3.17;;;15.90;99.90;;;;;;5004552;28;20183;-85
2023/07/07 03:00:21;;;;;;;6.47;3.87;;;15.90;99.90;;;;;;4994967;28;20194;-83
2023/07/07 03:02:47;;;;;;;10.63;3.47;;;15.90;99.90;;;;;;4994820;28;20179;-84
2023/07/07 03:05:13;;;;;;;6.43;3.57;;;15.90;99.90;;;;;;4993688;28;20234;-85
2023/07/07 03:07:38;;;;;;;7.13;3.10;;;15.90;99.90;;;;;;4998351;28;20454;-84
2023/07/07 03:10:06;;;;;;;6.23;3.50;;;15.90;99.90;;;;;;4997425;28;20195;-85
2023/07/07 03:12:32;;;;;;;9.60;3.13;;;15.90;99.90;;;;;;4995437;28;20222;-86
2023/07/07 03:14:57;;;;;;;9.30;3.23;;;15.80;99.90;;;;;;4988266;28;20982;-83
2023/07/07 03:17:23;;;;;;;4.53;3.03;;;15.80;99.90;;;;;;4993099;28;20675;-82
2023/07/07 03:19:49;;;;;;;6.43;3.30;;;15.80;99.90;;;;;;4996835;28;20190;-84
2023/07/07 03:22:14;;;;;;;4.40;3.20;;;15.80;99.90;;;;;;4988639;28;20222;-82
2023/07/07 03:24:40;;;;;;;8.73;3.83;;;15.80;99.90;;;;;;4994609;28;20289;-83
2023/07/07 03:27:05;;;;;;;6.20;3.40;;;15.80;99.90;;;;;;4991574;28;20192;-83
2023/07/07 03:29:31;;;;;;;5.97;2.93;;;15.80;99.90;;;;;;4994585;28;20195;-84
2023/07/07 03:31:56;;;;;;;9.60;3.23;;;15.80;99.90;;;;;;4993014;28;20222;-84
2023/07/07 03:34:22;;;;;;;4.10;3.47;;;15.80;99.90;;;;;;5007029;28;20214;-84
2023/07/07 03:36:48;;;;;;;5.27;3.20;;;15.80;99.90;;;;;;4989911;28;20214;-84
2023/07/07 03:39:14;;;;;;;5.93;3.10;;;15.80;1.00;;;;;;5002874;28;20542;-83
2023/07/07 03:41:40;;;;;;;7.40;3.30;;;15.70;1.00;;;;;;4991062;28;20202;-82
2023/07/07 03:44:05;;;;;;;4.80;3.13;;;15.70;1.00;;;;;;4990791;28;20445;-84
2023/07/07 03:46:31;;;;;;;9.57;3.27;;;15.70;1.00;;;;;;4990534;28;20200;-83
2023/07/07 03:48:59;;;;;;;8.10;3.40;;;15.70;1.00;;;;;;4994405;28;20264;-84
2023/07/07 03:51:28;;;;;;;5.77;2.93;;;15.60;1.00;;;;;;5003728;28;20207;-84
2023/07/07 03:53:54;;;;;;;7.80;2.93;;;15.70;1.00;;;;;;4987116;28;20777;-84
2023/07/07 03:56:20;;;;;;;4.60;3.00;;;15.70;1.00;;;;;;4991882;28;20514;-83
2023/07/07 03:58:45;;;;;;;8.13;2.80;;;15.60;1.00;;;;;;4989498;28;20285;-83
2023/07/07 04:01:15;;;;;;;10.17;3.87;;;15.70;1.00;;;;;;4983109;28;20211;-84
2023/07/07 04:03:42;;;;;;;5.70;3.10;;;15.70;1.00;;;;;;5007198;28;20449;-84
2023/07/07 04:06:08;;;;;;;8.37;3.10;;;15.70;1.00;;;;;;4992578;28;20450;-84
2023/07/07 04:08:33;;;;;;;10.80;3.90;;;15.70;1.00;;;;;;4997484;28;20538;-83
2023/07/07 04:11:06;;;;;;;5.43;3.10;;;15.60;1.00;;;;;;4991348;28;21007;-83
2023/07/07 04:13:35;;;;;;;4.60;2.90;;;15.60;1.00;;;;;;4993217;28;20654;-84
2023/07/07 04:16:22;;;;;;;6.83;3.40;;;15.70;1.00;;;;;;4990348;28;20470;-83
2023/07/07 04:18:50;;;;;;;6.73;3.37;;;15.70;1.00;;;;;;4990012;28;20450;-82
2023/07/07 04:21:19;;;;;;;4.53;3.70;;;15.80;1.00;;;;;;4989615;28;20499;-84
2023/07/07 04:23:47;;;;;;;8.40;3.30;;;15.80;1.00;;;;;;4987954;28;20447;-83
2023/07/07 04:26:13;;;;;;;9.97;3.10;;;15.80;1.00;;;;;;5005560;28;21110;-84
2023/07/07 04:28:39;;;;;;;6.47;3.53;;;15.90;1.00;;;;;;4988290;28;20457;-83
2023/07/07 04:31:07;;;;;;;8.47;3.80;;;15.90;1.00;;;;;;4992500;28;20497;-84
2023/07/07 04:33:35;;;;;;;8.27;3.33;;;16.00;1.00;;;;;;4991292;28;20435;-83
2023/07/07 04:36:04;;;;;;;16.70;3.60;;;16.00;1.00;;;;;;4992253;28;20501;-83
2023/07/07 04:38:31;;;;;;;4.47;3.40;;;16.00;1.00;;;;;;4987624;28;20435;-83
2023/07/07 04:41:07;;;;;;;10.37;4.43;;;16.10;1.00;;;;;;4991829;28;20465;-83
2023/07/07 04:43:34;;;;;;;6.53;3.63;;;16.10;1.00;;;;;;4988346;28;20463;-84
2023/07/07 04:46:00;;;;;;;4.93;3.23;;;16.20;1.00;;;;;;4989086;28;20530;-84
2023/07/07 04:48:26;;;;;;;8.93;3.60;;;16.20;1.00;;;;;;4993481;28;20453;-83
2023/07/07 04:50:57;;;;;;;5.77;3.27;;;16.30;1.00;;;;;;4987525;28;20870;-83
2023/07/07 04:53:23;;;;;;;8.67;2.90;;;16.40;1.00;;;;;;4990896;28;20202;-83
2023/07/07 04:55:48;;;;;;;8.53;3.70;;;16.40;1.00;;;;;;4994235;28;20474;-84
2023/07/07 04:58:14;;;;;;;6.80;4.27;;;16.50;99.90;;;;;;4990057;28;20203;-85
2023/07/07 05:00:39;;;;;;;7.30;3.47;;;16.50;99.90;;;;;;4990081;28;20205;-84
2023/07/07 05:03:05;;;;;;;6.10;3.73;;;16.60;99.90;;;;;;4985683;28;20180;-84
2023/07/07 05:05:30;;;;;;;8.83;3.13;;;16.70;99.90;;;;;;4991975;28;20721;-85
2023/07/07 05:07:56;;;;;;;6.60;3.40;;;16.80;99.90;;;;;;4989911;28;20272;-84
2023/07/07 05:10:21;;;;;;;6.60;3.80;;;16.80;99.90;;;;;;4993317;28;20192;-84
2023/07/07 05:12:47;;;;;;;11.00;4.30;;;16.90;99.90;;;;;;4986709;28;20187;-83
2023/07/07 05:15:15;;;;;;;7.97;3.80;;;17.00;99.90;;;;;;4991473;28;20220;-84
2023/07/07 05:17:40;;;;;;;8.37;3.33;;;17.10;99.90;;;;;;4987875;28;20318;-85
2023/07/07 05:20:06;;;;;;;10.70;4.30;;;17.10;99.90;;;;;;4993070;28;20496;-85
2023/07/07 05:22:32;;;;;;;11.73;4.00;;;17.20;99.90;;;;;;4990150;28;20256;-84
2023/07/07 05:24:57;;;;;;;14.60;3.70;;;17.30;1.00;;;;;;4989852;28;20455;-84
2023/07/07 05:27:23;;;;;;;13.53;4.03;;;17.40;1.00;;;;;;4991477;28;20249;-84
2023/07/07 05:29:54;;;;;;;14.20;4.83;;;17.40;1.00;;;;;;5008819;28;20190;-84
2023/07/07 05:32:20;;;;;;;14.43;4.20;;;17.60;1.00;;;;;;4988872;28;20213;-85
2023/07/07 05:34:45;;;;;;;8.07;4.03;;;17.60;1.00;;;;;;4991454;28;20519;-85
2023/07/07 05:37:14;;;;;;;18.00;3.77;;;17.70;1.00;;;;;;4988633;28;20232;-84
2023/07/07 05:39:39;;;;;;;10.33;3.80;;;17.90;1.00;;;;;;4993931;28;20217;-84
2023/07/07 05:42:05;;;;;;;9.00;4.40;;;17.90;99.90;;;;;;5005096;28;20459;-85
2023/07/07 05:44:31;;;;;;;7.37;4.20;;;18.00;99.90;;;;;;4990296;28;20213;-85
2023/07/07 05:46:56;;;;;;;7.13;3.60;;;18.20;99.90;;;;;;5007394;28;20442;-85
2023/07/07 05:49:22;;;;;;;7.53;3.00;;;18.30;99.90;;;;;;4993258;28;20182;-85
2023/07/07 05:51:47;;;;;;;6.20;3.60;;;18.40;99.90;;;;;;4992167;28;20208;-84
2023/07/07 05:54:13;;;;;;;8.53;3.40;;;18.40;99.90;;;;;;4986308;28;20196;-84
2023/07/07 05:56:39;;;;;;;13.40;4.13;;;18.50;99.90;;;;;;4988457;28;20675;-84
2023/07/07 05:59:06;;;;;;;7.07;3.60;;;18.50;99.90;;;;;;4991132;28;20441;-85
2023/07/07 06:01:33;;;;;;;6.77;3.43;;;18.70;99.90;;;;;;4991265;28;20466;-84
2023/07/07 06:03:58;;;;;;;7.33;3.50;;;18.80;99.90;;;;;;4981514;28;20958;-84
2023/07/07 06:06:24;;;;;;;6.47;3.60;;;19.10;99.90;;;;;;5004114;28;20513;-84
2023/07/07 06:08:50;;;;;;;4.70;3.10;;;19.20;99.90;;;;;;4990718;28;20222;-85
2023/07/07 06:11:16;;;;;;;12.20;3.17;;;19.50;99.90;;;;;;4987877;28;20210;-84
2023/07/07 06:13:41;;;;;;;5.90;3.20;;;20.10;99.90;;;;;;4991324;28;20226;-84
2023/07/07 06:16:07;;;;;;;6.17;3.23;;;21.50;99.90;;;;;;4989641;28;20215;-85
2023/07/07 06:18:32;;;;;;;6.07;3.03;;;24.70;99.90;;;;;;4990263;28;20279;-85
2023/07/07 06:20:59;;;;;;;7.47;2.80;;;28.40;99.90;;;;;;4985862;28;20635;-85
2023/07/07 06:23:26;;;;;;;7.07;2.83;;;31.70;99.90;;;;;;4991065;28;20275;-85
2023/07/07 06:25:52;;;;;;;4.33;2.80;;;34.00;98.90;;;;;;4992230;28;20431;-82
2023/07/07 06:28:19;;;;;;;5.57;3.27;;;34.50;90.80;;;;;;4995634;28;20454;-83
2023/07/07 06:30:48;;;;;;;6.57;2.60;;;35.90;67.70;;;;;;4994497;28;20488;-82
2023/07/07 06:33:14;;;;;;;6.37;3.10;;;37.20;53.00;;;;;;4988660;28;20461;-83
2023/07/07 06:35:41;;;;;;;6.80;3.03;;;37.80;41.30;;;;;;5002880;28;20463;-82
2023/07/07 06:38:06;;;;;;;3.53;2.50;;;38.90;30.80;;;;;;4993007;28;20191;-82
2023/07/07 06:40:34;;;;;;;4.43;2.30;;;40.30;23.60;;;;;;4991522;28;20638;-84
2023/07/07 06:42:59;;;;;;;2.80;2.50;;;40.50;17.20;;;;;;4993745;28;20187;-83
2023/07/07 06:45:25;;;;;;;4.37;2.33;;;41.60;11.60;;;;;;5011093;28;20995;-83
2023/07/07 06:47:57;;;;;;;4.60;2.47;;;41.30;5.90;;;;;;5009816;28;20187;-83
2023/07/07 06:50:36;;;;;;;4.07;2.40;;;42.80;2.80;;;;;;4989663;28;20188;-83
2023/07/07 06:53:01;;;;;;;4.27;2.27;;;45.00;1.00;;;;;;5004111;28;20442;-84
2023/07/07 06:55:27;;;;;;;3.43;2.13;;;44.70;1.00;;;;;;4992487;28;20466;-84
2023/07/07 06:57:52;;;;;;;4.33;2.17;;;44.50;1.00;;;;;;4993771;28;20183;-84
2023/07/07 07:00:18;;;;;;;7.23;2.50;;;46.40;1.00;;;;;;4991769;28;20266;-84
2023/07/07 07:02:45;;;;;;;5.93;2.40;;;48.00;1.00;;;;;;4990032;28;20194;-84
2023/07/07 07:05:10;;;;;;;4.43;2.53;;;49.30;1.00;;;;;;4990152;28;20207;-84
2023/07/07 07:07:39;;;;;;;3.23;2.40;;;50.60;1.00;;;;;;4991517;28;20671;-84
2023/07/07 07:10:05;;;;;;;3.35;2.05;;;51.70;1.00;;;;;;4991781;28;20189;-84
2023/07/07 07:12:31;;;;;;;3.80;2.38;;;52.30;1.00;;;;;;4990959;28;20194;-84
2023/07/07 07:14:56;;;;;;;2.75;2.05;;;52.60;1.00;;;;;;5001083;28;20183;-84
2023/07/07 07:17:23;;;;;;;3.08;2.03;;;53.30;1.00;;;;;;4983948;28;20186;-84
2023/07/07 07:19:52;;;;;;;2.75;2.50;;;53.80;1.00;;;;;;4992464;28;20277;-85
2023/07/07 07:22:18;;;;;;;3.08;2.20;;;54.00;1.00;;;;;;4989248;28;20309;-84
2023/07/07 07:24:44;;;;;;;3.35;2.05;;;53.90;1.00;;;;;;4988916;28;20262;-84
2023/07/07 07:27:10;;;;;;;4.50;2.22;;;52.90;1.00;;;;;;4985630;28;20273;-85
2023/07/07 07:29:38;;;;;;;3.95;2.38;;;53.60;1.00;;;;;;4991465;28;20179;-85
2023/07/07 07:32:07;;;;;;;2.55;2.22;;;53.60;1.00;;;;;;4984945;28;20203;-84
2023/07/07 07:34:33;;;;;;;3.10;2.10;;;52.80;1.00;;;;;;4990433;28;20193;-85
2023/07/07 07:37:00;;;;;;;6.72;2.03;;;53.70;1.00;;;;;;4989592;28;20201;-85
2023/07/07 07:39:27;;;;;;;5.97;2.22;;;53.90;1.00;;;;;;4981959;28;20189;-85
2023/07/07 07:41:56;;;;;;;1.83;1.63;;;53.20;1.00;;;;;;4988172;28;23172;-86
2023/07/07 07:44:25;;;;;;;4.35;2.47;;;53.90;1.00;;;;;;4990256;28;20584;-85
2023/07/07 07:46:53;;;;;;;2.80;2.00;;;54.00;1.00;;;;;;4989791;28;20234;-85
2023/07/07 07:49:19;;;;;;;4.00;2.13;;;54.00;1.00;;;;;;4989191;28;20191;-85
2023/07/07 07:51:46;;;;;;;6.72;2.50;;;55.20;1.00;;;;;;4991889;28;20717;-86
2023/07/07 07:54:13;;;;;;;3.25;2.08;;;56.00;1.00;;;;;;4990125;28;20282;-85
2023/07/07 07:56:40;;;;;;;2.25;1.80;;;54.00;1.00;;;;;;4992113;28;20214;-84
2023/07/07 07:59:06;;;;;;;2.95;1.50;;;52.90;1.00;;;;;;4989033;28;20270;-85
2023/07/07 08:01:32;;;;;;;4.05;2.20;;;53.60;1.00;;;;;;4991819;28;20361;-85
2023/07/07 08:03:58;;;;;;;2.70;2.10;;;54.30;1.00;;;;;;4989810;28;20211;-85
2023/07/07 08:06:23;;;;;;;2.40;1.77;;;54.30;1.00;;;;;;4990853;28;20198;-84
2023/07/07 08:08:49;;;;;;;3.50;2.05;;;54.60;1.00;;;;;;4993488;28;20199;-85
2023/07/07 08:11:29;;;;;;;3.72;1.90;;;54.00;1.00;;;;;;4991314;28;20210;-85
2023/07/07 08:13:54;;;;;;;2.47;1.38;;;55.30;1.00;;;;;;4988289;28;20183;-85
2023/07/07 08:16:21;;;;;;;3.72;2.03;;;56.40;1.00;;;;;;4990246;28;20221;-84
2023/07/07 08:18:46;;;;;;;2.35;1.90;;;54.70;1.00;;;;;;4990667;28;20533;-84
2023/07/07 08:21:12;;;;;;;5.50;1.77;;;54.30;1.00;;;;;;4993278;28;20218;-86
2023/07/07 08:23:37;;;;;;;2.47;1.70;;;53.80;1.00;;;;;;4992401;28;20187;-84
2023/07/07 08:26:03;;;;;;;2.00;1.58;;;55.10;1.00;;;;;;4991457;28;20191;-85
2023/07/07 08:28:28;;;;;;;2.60;1.60;;;54.10;1.00;;;;;;4991439;28;20179;-84
2023/07/07 08:30:54;;;;;;;3.58;1.67;;;54.30;1.00;;;;;;4989995;28;20580;-85
2023/07/07 08:33:19;;;;;;;3.05;1.70;;;54.80;1.00;;;;;;4988063;28;20209;-85
2023/07/07 08:35:45;;;;;;;5.03;1.98;;;53.40;1.00;;;;;;5001415;28;20206;-84
2023/07/07 08:38:10;;;;;;;2.63;1.90;;;52.70;1.00;;;;;;4993277;28;20202;-85
2023/07/07 08:40:50;;;;;;;5.57;1.80;;;52.00;1.00;;;;;;4989874;28;20207;-85
2023/07/07 08:43:17;;;;;;;3.17;1.85;;;53.90;1.00;;;;;;4986180;28;20175;-84
2023/07/07 08:45:49;;;;;;;2.05;1.85;;;53.00;1.00;;;;;;4991127;28;20187;-84
2023/07/07 08:48:30;;;;;;;2.72;1.70;;;52.90;1.00;;;;;;4991783;28;20187;-84
2023/07/07 08:51:00;;;;;;;2.78;1.50;;;51.90;1.00;;;;;;4983486;28;20213;-84
2023/07/07 08:53:42;;;;;;;3.83;1.70;;;52.50;1.00;;;;;;4989135;28;20703;-85
2023/07/07 08:56:27;;;;;;;2.83;2.03;;;52.90;1.00;;;;;;4992958;28;20242;-84
2023/07/07 08:58:55;;;;;;;3.15;1.98;;;53.00;1.00;;;;;;4984344;28;20242;-84
2023/07/07 09:01:42;;;;;;;2.75;1.55;;;53.50;1.00;;;;;;4992217;28;20207;-84
2023/07/07 09:04:22;;;;;;;3.03;1.63;;;51.60;1.00;;;;;;5004108;28;20186;-84
2023/07/07 09:07:14;;;;;;;2.43;2.23;;;51.20;1.00;;;;;;5000513;28;20179;-84
2023/07/07 09:10:03;;;;;;;4.30;1.80;;;51.50;1.00;;;;;;4963113;28;20755;-86
2023/07/07 09:12:41;;;;;;;6.70;2.10;;;51.20;1.00;;;;;;4994962;28;20211;-84
2023/07/07 09:15:35;;;;;;;4.13;2.20;;;51.10;1.00;;;;;;4991308;28;20712;-84
2023/07/07 09:18:07;;;;;;;3.03;1.80;;;50.40;1.00;;;;;;4991759;28;20195;-84
2023/07/07 09:20:35;;;;;;;2.73;1.80;;;50.50;1.00;;;;;;4987161;28;20211;-84
2023/07/07 09:23:16;;;;;;;4.07;1.90;;;50.00;1.00;;;;;;4997787;28;20175;-84
2023/07/07 09:25:55;;;;;;;4.77;1.90;;;49.90;1.00;;;;;;4991597;28;20186;-84
2023/07/07 09:28:20;;;;;;;3.47;2.10;;;51.20;1.00;;;;;;4994365;28;20579;-86
2023/07/07 09:31:11;;;;;;;4.70;2.37;;;51.20;1.00;;;;;;4996209;28;20286;-84
2023/07/07 09:33:37;;;;;;;2.63;2.10;;;49.70;1.00;;;;;;4995605;28;20198;-84
2023/07/07 09:36:20;;;;;;;5.33;2.53;;;50.80;1.00;;;;;;4998083;28;20560;-83
2023/07/07 09:39:24;;;;;;;4.37;2.47;;;50.30;1.00;;;;;;4990942;28;20186;-84
2023/07/07 09:42:15;;;;;;;4.53;2.50;;;50.00;1.00;;;;;;4983753;28;20229;-84
2023/07/07 09:45:06;;;;;;;7.23;2.50;;;49.70;1.00;;;;;;4990597;28;20448;-84
2023/07/07 09:47:55;;;;;;;4.60;2.30;;;49.50;1.00;;;;;;4988014;28;20179;-85
2023/07/07 09:50:42;;;;;;;5.60;2.23;;;49.50;1.00;;;;;;4991601;28;20445;-84
2023/07/07 09:53:26;;;;;;;5.30;2.27;;;50.70;1.00;;;;;;4997639;28;20437;-85
2023/07/07 09:55:54;;;;;;;6.37;2.00;;;50.10;1.00;;;;;;4997495;28;20542;-85
2023/07/07 09:58:35;;;;;;;5.77;2.00;;;49.30;1.00;;;;;;4997184;28;20512;-84
2023/07/07 10:01:03;;;;;;;3.37;2.90;;;47.30;1.00;;;;;;4996813;28;20457;-85
2023/07/07 10:03:44;;;;;;;3.60;1.90;;;47.30;1.00;;;;;;4997886;28;20584;-84
2023/07/07 10:06:34;;;;;;;3.00;1.90;;;47.50;1.00;;;;;;4985941;28;20445;-84
2023/07/07 10:09:00;;;;;;;2.00;1.73;;;46.80;1.00;;;;;;4993692;28;20445;-83
2023/07/07 10:11:40;;;;;;;2.57;1.83;;;46.70;1.00;;;;;;4988335;28;20975;-85
2023/07/07 10:14:10;;;;;;;7.40;2.30;;;46.80;1.00;;;;;;4988154;28;20433;-85
2023/07/07 10:17:08;;;;;;;3.57;1.97;;;47.10;1.00;;;;;;4987029;28;20462;-85
2023/07/07 10:19:50;;;;;;;5.60;1.97;;;47.40;1.00;;;;;;5000882;28;20447;-86
2023/07/07 10:22:16;;;;;;;3.27;2.27;;;47.00;1.00;;;;;;4985944;28;20509;-86
2023/07/07 10:24:42;;;;;;;2.27;2.07;;;46.90;1.00;;;;;;4982432;28;20804;-86
2023/07/07 10:27:15;;;;;;;2.63;2.10;;;47.20;1.00;;;;;;4981979;28;20280;-86
2023/07/07 10:29:42;;;;;;;4.53;2.20;;;47.40;1.00;;;;;;4971872;28;20791;-86
2023/07/07 10:32:17;;;;;;;1.80;1.70;;;47.80;1.00;;;;;;4989275;28;20454;-86
2023/07/07 10:34:46;;;;;;;2.90;2.30;;;47.60;1.00;;;;;;5001470;28;20437;-86
2023/07/07 10:37:21;;;;;;;2.60;2.20;;;46.80;1.00;;;;;;4989880;28;20439;-85
2023/07/07 10:39:51;;;;;;;3.53;2.63;;;46.00;1.00;;;;;;4979543;28;20446;-86
2023/07/07 10:42:17;;;;;;;2.90;2.50;;;46.50;1.00;;;;;;4989917;28;20983;-86
2023/07/07 10:44:42;;;;;;;4.37;1.87;;;47.10;1.00;;;;;;4982050;28;20450;-85
2023/07/07 10:47:09;;;;;;;3.00;2.40;;;47.30;1.00;;;;;;4988440;28;20183;-84
2023/07/07 10:49:35;;;;;;;3.23;2.50;;;46.60;1.00;;;;;;4979387;28;20179;-84
2023/07/07 10:52:36;;;;;;;4.47;2.30;;;47.10;1.00;;;;;;4991768;28;20609;-84
2023/07/07 10:55:17;;;;;;;4.03;2.10;;;47.50;1.00;;;;;;4947021;28;20709;-85
2023/07/07 10:58:21;;;;;;;2.30;1.90;;;48.20;1.00;;;;;;4978634;28;20604;-85
2023/07/07 11:01:21;;;;;;;3.67;2.10;;;48.10;1.00;;;;;;4978475;28;20458;-84
2023/07/07 11:03:50;;;;;;;3.37;2.73;;;47.50;1.00;;;;;;4987284;28;20426;-84
2023/07/07 11:06:32;;;;;;;3.30;2.60;;;47.10;1.00;;;;;;4991003;28;20992;-84
2023/07/07 11:09:22;;;;;;;2.70;2.50;;;46.70;1.00;;;;;;4985628;28;20438;-85
2023/07/07 11:12:11;;;;;;;4.13;2.37;;;45.50;1.00;;;;;;4980384;28;20454;-84
2023/07/07 11:15:23;;;;;;;3.63;2.30;;;43.80;1.00;;;;;;4986185;28;21055;-84
2023/07/07 11:17:59;;;;;;;2.93;1.93;;;44.40;1.00;;;;;;5000967;28;20436;-84
2023/07/07 11:20:28;;;;;;;2.83;1.90;;;43.90;1.00;;;;;;4988918;28;20438;-84
2023/07/07 11:23:24;;;;;;;2.53;2.33;;;43.80;1.00;;;;;;4990418;28;20442;-85
2023/07/07 11:26:31;;;;;;;2.00;1.80;;;44.30;1.00;;;;;;4978736;28;20450;-85
2023/07/07 11:29:30;;;;;;;7.60;2.43;;;44.50;1.00;;;;;;4986198;28;21593;-84
2023/07/07 11:32:04;;;;;;;4.50;3.00;;;43.90;1.00;;;;;;5004109;28;20474;-84
2023/07/07 11:35:09;;;;;;;5.33;3.33;;;44.60;1.00;;;;;;4990739;28;20446;-86
2023/07/07 11:37:43;;;;;;;4.17;2.27;;;44.40;1.00;;;;;;4961789;28;20430;-86
2023/07/07 11:40:37;;;;;;;5.63;2.80;;;43.30;1.00;;;;;;4992306;28;20437;-83
2023/07/07 11:43:11;;;;;;;5.87;2.07;;;42.40;1.00;;;;;;5007677;28;20542;-84
2023/07/07 11:46:09;;;;;;;7.73;2.67;;;42.90;1.00;;;;;;4985439;28;20488;-84
2023/07/07 11:48:53;;;;;;;5.53;3.07;;;42.00;1.00;;;;;;4989150;28;20443;-86
2023/07/07 11:51:35;;;;;;;3.73;2.63;;;41.30;1.00;;;;;;4986244;28;20467;-83
2023/07/07 11:54:15;;;;;;;3.40;2.53;;;41.20;1.00;;;;;;5007313;28;20469;-85
2023/07/07 11:57:03;;;;;;;3.57;2.47;;;41.60;1.00;;;;;;5003410;28;20466;-86
2023/07/07 11:59:51;;;;;;;3.40;2.30;;;42.20;1.00;;;;;;4987033;28;20447;-84
2023/07/07 12:02:28;;;;;;;2.87;2.27;;;41.80;1.00;;;;;;4984453;28;20542;-86
2023/07/07 12:04:58;;;;;;;3.87;2.40;;;42.40;1.00;;;;;;4993787;28;20422;-86
2023/07/07 12:07:45;;;;;;;3.57;2.90;;;42.70;1.00;;;;;;4984867;28;20451;-86
2023/07/07 12:10:22;;;;;;;2.53;2.03;;;43.30;1.00;;;;;;4991512;28;20423;-86
2023/07/07 12:13:03;;;;;;;4.87;2.40;;;43.00;1.00;;;;;;4984613;28;20538;-85
2023/07/07 12:15:46;;;;;;;4.40;2.07;;;42.20;1.00;;;;;;4992291;28;20516;-86
2023/07/07 12:18:17;;;;;;;3.13;2.37;;;42.30;1.00;;;;;;4987021;28;20802;-85
2023/07/07 12:20:55;;;;;;;2.27;2.07;;;41.90;1.00;;;;;;4991262;28;20463;-86
2023/07/07 12:23:29;;;;;;;2.97;2.67;;;40.90;1.00;;;;;;4990188;28;20442;-86
2023/07/07 12:26:14;;;;;;;4.50;2.67;;;41.20;1.00;;;;;;5001720;28;20535;-86
2023/07/07 12:29:03;;;;;;;4.80;2.13;;;41.20;1.00;;;;;;4982761;28;20443;-85
2023/07/07 12:31:32;;;;;;;3.60;2.00;;;40.70;1.00;;;;;;5002885;28;20457;-86
2023/07/07 12:34:15;;;;;;;3.43;1.97;;;40.90;1.00;;;;;;4991655;28;20840;-86
2023/07/07 12:36:51;;;;;;;3.90;2.40;;;40.40;1.00;;;;;;4991208;28;20895;-87
2023/07/07 12:39:49;;;;;;;4.43;2.60;;;39.70;1.00;;;;;;4982785;28;20443;-85
2023/07/07 12:42:23;;;;;;;3.17;2.53;;;39.00;1.00;;;;;;4987123;28;20840;-85
2023/07/07 12:44:55;;;;;;;4.63;2.20;;;39.00;1.00;;;;;;4993300;28;20959;-85
2023/07/07 12:47:50;;;;;;;;;;;;;;;;;;;;;
2023/07/07 12:50:25;;;;;;;5.40;2.17;;;38.20;1.00;;;;;;4986675;28;20447;-86
2023/07/07 12:52:51;;;;;;;4.97;2.17;;;37.40;1.00;;;;;;4990645;28;20445;-85
2023/07/07 12:55:30;;;;;;;4.33;2.30;;;37.30;1.00;;;;;;4990764;28;20470;-85
2023/07/07 12:58:04;;;;;;;5.33;2.60;;;37.10;1.00;;;;;;4985792;28;20419;-85
2023/07/07 13:00:33;;;;;;;7.10;2.80;;;37.00;1.00;;;;;;4990746;28;20461;-86
2023/07/07 13:03:16;;;;;;;3.07;2.00;;;37.40;1.00;;;;;;4992095;28;20422;-85
2023/07/07 13:05:50;;;;;;;3.00;2.33;;;37.70;1.00;;;;;;4989554;28;20438;-85
2023/07/07 13:08:34;;;;;;;3.00;2.00;;;37.40;1.00;;;;;;4983623;28;20442;-86
2023/07/07 13:11:04;;;;;;;6.83;2.93;;;36.60;1.00;;;;;;4984914;28;20446;-86
2023/07/07 13:13:37;;;;;;;2.27;2.00;;;36.30;1.00;;;;;;4984053;28;20436;-85
2023/07/07 13:16:06;;;;;;;13.23;2.70;;;36.30;1.00;;;;;;4985289;28;20475;-85